Time;durP1;ratioP1;P1;durP2;ratioP2;P2;SDS_P1;SDS_P2;PMS_P1;PMS_P2;Temp;Humidity;BMP_temperature;BMP_pressure;BME280_temperature;BME280_humidity;BME280_pressure;Samples;Min_cycle;Max_cycle;Signal;HPM_P1;HPM_P2
2022/12/11 00:01:56;;;;;;;95.53;24.02;;;;;;;-0.30;100.00;101084.41;5031538;28;20120;-74
2022/12/11 00:04:21;;;;;;;77.13;20.80;;;;;;;-0.26;100.00;101091.44;5029158;28;20067;-75
2022/12/11 00:06:50;;;;;;;85.88;23.83;;;;;;;-0.27;100.00;101086.13;5031497;28;20578;-75
2022/12/11 00:09:19;;;;;;;95.68;25.25;;;;;;;-0.26;100.00;101078.06;5029818;28;20507;-75
2022/12/11 00:11:46;;;;;;;84.63;23.60;;;;;;;-0.26;100.00;101075.41;5040443;28;20116;-75
2022/12/11 00:14:12;;;;;;;86.00;21.52;;;;;;;-0.25;100.00;101076.28;5040548;28;20476;-74
2022/12/11 00:16:38;;;;;;;81.90;21.45;;;;;;;-0.24;100.00;101083.38;5049591;28;20382;-74
2022/12/11 00:19:03;;;;;;;92.18;23.70;;;;;;;-0.24;100.00;101079.81;5049858;28;20036;-75
2022/12/11 00:21:29;;;;;;;82.95;21.98;;;;;;;-0.24;100.00;101072.69;5031448;28;20453;-74
2022/12/11 00:23:54;;;;;;;87.15;22.70;;;;;;;-0.24;100.00;101070.00;5030889;28;20080;-75
2022/12/11 00:26:20;;;;;;;77.90;22.38;;;;;;;-0.23;100.00;101073.56;5029708;28;20033;-75
2022/12/11 00:28:46;;;;;;;91.75;23.95;;;;;;;-0.22;100.00;101072.66;5030265;28;20025;-74
2022/12/11 00:31:17;;;;;;;94.55;23.00;;;;;;;-0.22;100.00;101067.31;5042131;28;20041;-75
2022/12/11 00:33:44;;;;;;;89.60;23.30;;;;;;;-0.21;100.00;101071.75;5031091;28;20120;-75
2022/12/11 00:36:12;;;;;;;78.70;21.67;;;;;;;-0.20;100.00;101076.16;5029551;28;20438;-75
2022/12/11 00:38:37;;;;;;;88.43;23.52;;;;;;;-0.22;100.00;101073.53;5042387;28;20032;-75
2022/12/11 00:41:02;;;;;;;94.47;24.23;;;;;;;-0.23;100.00;101070.88;5035255;28;20029;-74
2022/12/11 00:43:28;;;;;;;100.03;23.67;;;;;;;-0.20;100.00;101066.34;5044857;28;20041;-75
2022/12/11 00:45:53;;;;;;;78.85;20.60;;;;;;;-0.18;100.00;101075.22;5040452;28;20069;-74
2022/12/11 00:48:18;;;;;;;85.07;22.67;;;;;;;-0.19;100.00;101070.75;5045775;28;20038;-74
2022/12/11 00:50:45;;;;;;;76.63;22.20;;;;;;;-0.17;100.00;101068.94;5048359;28;20048;-73
2022/12/11 00:53:10;;;;;;;89.05;24.67;;;;;;;-0.15;100.00;101076.91;5032647;28;20099;-74
2022/12/11 00:55:38;;;;;;;71.28;20.65;;;;;;;-0.16;100.00;101070.69;5048874;28;20468;-74
2022/12/11 00:58:03;;;;;;;78.78;24.15;;;;;;;-0.16;100.00;101070.69;5044672;28;20033;-74
2022/12/11 01:00:29;;;;;;;72.55;22.27;;;;;;;-0.15;100.00;101066.22;5043955;28;20080;-74
2022/12/11 01:02:54;;;;;;;83.93;22.52;;;;;;;-0.14;100.00;101070.66;5045784;28;20112;-75
2022/12/11 01:05:19;;;;;;;82.93;23.15;;;;;;;-0.14;100.00;101068.88;5045916;28;20434;-74
2022/12/11 01:07:45;;;;;;;82.65;22.30;;;;;;;-0.13;100.00;101067.09;5029922;28;20041;-74
2022/12/11 01:10:22;;;;;;;83.13;24.42;;;;;;;-0.11;100.00;101062.56;5034797;28;20029;-74
2022/12/11 01:12:49;;;;;;;77.07;22.33;;;;;;;-0.13;100.00;101062.63;5045013;28;20055;-76
2022/12/11 01:15:14;;;;;;;83.28;23.05;;;;;;;-0.12;100.00;101061.69;5026708;28;20053;-74
2022/12/11 01:17:40;;;;;;;78.82;21.50;;;;;;;-0.13;100.00;101061.75;5028280;28;20073;-74
2022/12/11 01:20:05;;;;;;;77.07;21.15;;;;;;;-0.14;100.00;101063.53;5041994;28;20169;-74
2022/12/11 01:22:31;;;;;;;68.22;20.80;;;;;;;-0.11;100.00;101070.59;5027701;28;20041;-74
2022/12/11 01:24:56;;;;;;;69.97;21.30;;;;;;;-0.08;100.00;101070.53;5033459;28;20063;-74
2022/12/11 01:27:22;;;;;;;74.25;21.05;;;;;;;-0.09;100.00;101072.31;5026747;28;20049;-74
2022/12/11 01:29:48;;;;;;;75.57;21.70;;;;;;;-0.08;100.00;101074.06;5026873;28;20071;-74
2022/12/11 01:32:14;;;;;;;76.03;21.02;;;;;;;-0.07;100.00;101077.63;5041703;28;20048;-75
2022/12/11 01:34:39;;;;;;;72.95;21.02;;;;;;;-0.09;100.00;101074.13;5066055;28;20356;-74
2022/12/11 01:37:04;;;;;;;65.38;21.83;;;;;;;-0.09;100.00;101077.66;5036052;28;20050;-74
2022/12/11 01:39:30;;;;;;;70.75;21.38;;;;;;;-0.09;100.00;101066.97;5027961;28;20041;-75
2022/12/11 01:41:57;;;;;;;72.90;21.73;;;;;;;-0.08;100.00;101074.06;5039463;28;20033;-75
2022/12/11 01:44:22;;;;;;;76.53;21.33;;;;;;;-0.05;100.00;101067.75;5028811;28;20508;-75
2022/12/11 01:46:48;;;;;;;61.03;21.00;;;;;;;-0.04;100.00;101066.84;5050584;28;20121;-74
2022/12/11 01:49:16;;;;;;;76.75;21.85;;;;;;;-0.07;100.00;101065.13;5067428;28;20016;-74
2022/12/11 01:51:51;;;;;;;71.85;20.45;;;;;;;-0.08;100.00;101058.03;5033838;28;20045;-74
2022/12/11 01:54:21;;;;;;;59.03;19.33;;;;;;;-0.07;100.00;101054.44;5042706;28;20393;-74
2022/12/11 01:56:48;;;;;;;58.58;19.88;;;;;;;-0.03;100.00;101060.59;5027072;28;20033;-75
2022/12/11 01:59:17;;;;;;;61.00;20.48;;;;;;;-0.05;100.00;101055.28;5026199;28;20044;-74
2022/12/11 02:01:53;;;;;;;69.00;20.80;;;;;;;-0.04;100.00;101059.72;5047379;28;20051;-75
2022/12/11 02:04:19;;;;;;;63.03;20.45;;;;;;;-0.07;100.00;101051.75;5045397;28;20033;-75
2022/12/11 02:06:47;;;;;;;66.28;20.10;;;;;;;-0.06;100.00;101058.84;5057800;28;20032;-74
2022/12/11 02:09:16;;;;;;;64.68;20.77;;;;;;;-0.08;100.00;101049.13;5050806;28;20041;-75
2022/12/11 02:12:13;;;;;;;60.88;19.98;;;;;;;-0.04;100.00;101050.81;5046110;28;20366;-74
2022/12/11 02:14:45;;;;;;;60.45;21.48;;;;;;;-0.04;100.00;101051.69;5029705;28;20481;-75
2022/12/11 02:17:19;;;;;;;59.20;19.30;;;;;;;-0.05;100.00;101049.94;5027140;28;20029;-75
2022/12/11 02:20:13;;;;;;;52.08;19.10;;;;;;;-0.03;100.00;101053.44;5040392;28;20048;-74
2022/12/11 02:22:44;;;;;;;58.50;20.35;;;;;;;-0.03;100.00;101053.44;5025751;28;20037;-75
2022/12/11 02:25:14;;;;;;;54.33;19.60;;;;;;;-0.02;100.00;101065.88;5027785;28;20044;-74
2022/12/11 02:27:47;;;;;;;62.45;20.92;;;;;;;-0.01;100.00;101058.75;5009569;28;20124;-75
2022/12/11 02:30:15;;;;;;;52.38;18.05;;;;;;;-0.02;100.00;101054.31;5027386;28;20037;-74
2022/12/11 02:32:57;;;;;;;63.38;20.13;;;;;;;-0.02;100.00;101052.50;5026817;28;20033;-74
2022/12/11 02:35:44;;;;;;;58.73;19.07;;;;;;;0.02;100.00;101052.44;5016598;28;20041;-75
2022/12/11 02:38:21;;;;;;;56.72;18.23;;;;;;;0.02;100.00;101047.09;5025865;28;20327;-74
2022/12/11 02:40:50;;;;;;;59.25;18.70;;;;;;;0.02;100.00;101044.44;5028198;28;20094;-76
2022/12/11 02:43:18;;;;;;;54.63;18.17;;;;;;;0.04;100.00;101046.13;5040786;28;20575;-74
2022/12/11 02:45:45;;;;;;;57.58;19.17;;;;;;;0.02;100.00;101041.75;5008946;28;20041;-74
2022/12/11 02:48:12;;;;;;;48.03;17.95;;;;;;;0.03;100.00;101052.41;5025201;28;20457;-74
2022/12/11 02:50:42;;;;;;;58.75;18.50;;;;;;;0.03;100.00;101049.72;5043842;28;20421;-75
2022/12/11 02:53:12;;;;;;;57.58;19.45;;;;;;;0.02;100.00;101047.97;5040240;28;20034;-75
2022/12/11 02:55:40;;;;;;;57.38;18.33;;;;;;;0.03;100.00;101049.72;5025652;28;20220;-75
2022/12/11 02:58:16;;;;;;;62.30;19.38;;;;;;;0.03;100.00;101044.38;5036328;28;20022;-75
2022/12/11 03:00:44;;;;;;;58.20;18.40;;;;;;;0.03;100.00;101047.03;5052425;28;20042;-75
2022/12/11 03:03:10;;;;;;;56.00;17.88;;;;;;;0.03;100.00;101043.50;5066358;28;20037;-75
2022/12/11 03:05:35;;;;;;;54.25;18.42;;;;;;;0.02;100.00;101039.94;5064493;28;20037;-75
2022/12/11 03:08:01;;;;;;;48.13;16.77;;;;;;;-0.01;100.00;101034.66;5059131;28;20040;-75
2022/12/11 03:10:26;;;;;;;54.75;17.88;;;;;;;0.01;100.00;101032.84;5046741;28;20056;-75
2022/12/11 03:12:54;;;;;;;46.38;17.77;;;;;;;0.02;100.00;101025.69;5043943;28;20132;-75
2022/12/11 03:15:29;;;;;;;50.30;17.73;;;;;;;0.02;100.00;101023.03;5026417;28;20430;-75
2022/12/11 03:18:16;;;;;;;47.45;17.00;;;;;;;0.04;100.00;101026.53;5025525;28;20112;-74
2022/12/11 03:20:53;;;;;;;53.05;17.63;;;;;;;0.03;100.00;101031.00;5025484;28;20044;-75
2022/12/11 03:23:54;;;;;;;46.15;16.70;;;;;;;0.03;100.00;101025.66;5008448;28;20103;-75
2022/12/11 03:26:21;;;;;;;42.47;16.17;;;;;;;-0.01;100.00;101019.50;5025052;28;20513;-75
2022/12/11 03:28:54;;;;;;;41.40;16.17;;;;;;;0.00;100.00;101025.75;5023879;28;20083;-75
2022/12/11 03:31:28;;;;;;;40.72;14.88;;;;;;;-0.01;100.00;101030.19;5025140;28;20068;-75
2022/12/11 03:33:57;;;;;;;41.38;15.73;;;;;;;-0.05;100.00;101025.88;5026057;28;20481;-75
2022/12/11 03:36:28;;;;;;;38.40;14.48;;;;;;;-0.03;100.00;101033.84;5044523;28;20416;-75
2022/12/11 03:38:58;;;;;;;42.05;16.02;;;;;;;-0.04;100.00;101016.06;5030305;28;20481;-75
2022/12/11 03:41:25;;;;;;;37.67;13.80;;;;;;;-0.05;100.00;101016.94;5032022;28;20051;-75
2022/12/11 03:43:55;;;;;;;33.30;14.20;;;;;;;-0.05;100.00;101016.94;5039561;28;20041;-75
2022/12/11 03:46:24;;;;;;;34.55;13.45;;;;;;;-0.05;100.00;101019.63;5043187;28;20588;-75
2022/12/11 03:48:52;;;;;;;31.70;13.63;;;;;;;-0.04;100.00;101024.94;5026755;28;20048;-75
2022/12/11 03:51:18;;;;;;;39.00;14.30;;;;;;;-0.07;100.00;101022.34;5044789;28;20060;-75
2022/12/11 03:53:45;;;;;;;32.78;13.30;;;;;;;-0.06;100.00;101021.41;5028704;28;20041;-75
2022/12/11 03:56:14;;;;;;;35.20;13.73;;;;;;;-0.04;100.00;101010.69;5029137;28;20045;-75
2022/12/11 03:58:39;;;;;;;30.88;12.93;;;;;;;-0.04;100.00;101008.03;5044744;28;20052;-75
2022/12/11 04:01:09;;;;;;;30.90;13.13;;;;;;;-0.05;100.00;101007.16;5029614;28;20069;-75
2022/12/11 04:03:34;;;;;;;32.10;12.18;;;;;;;-0.04;100.00;101003.56;5027313;28;20546;-75
2022/12/11 04:05:59;;;;;;;29.23;13.50;;;;;;;-0.06;100.00;100997.34;5028175;28;20124;-75
2022/12/11 04:08:25;;;;;;;32.20;12.73;;;;;;;-0.07;100.00;100998.28;5043759;28;20119;-75
2022/12/11 04:11:33;;;;;;;31.50;14.27;;;;;;;-0.06;100.00;101001.81;5031467;28;20033;-75
2022/12/11 04:13:37;;;;;;;32.75;12.48;;;;;;;-0.04;100.00;101000.88;5043320;28;20041;-75
2022/12/11 04:16:03;;;;;;;29.38;12.30;;;;;;;-0.06;100.00;101000.03;5028844;28;20451;-75
2022/12/11 04:26:40;;;;;;;32.90;12.75;;;;;;;-0.06;100.00;101008.03;5029833;28;20037;-75
2022/12/11 04:29:05;;;;;;;30.17;12.15;;;;;;;-0.07;100.00;101000.06;5028131;28;20480;-76
2022/12/11 04:31:31;;;;;;;30.85;12.90;;;;;;;-0.07;100.00;100997.41;5028764;28;20026;-75
2022/12/11 04:33:56;;;;;;;28.83;11.93;;;;;;;-0.05;100.00;101000.91;5028481;28;20419;-75
2022/12/11 04:36:22;;;;;;;34.00;13.70;;;;;;;-0.09;100.00;100997.44;5043164;28;20499;-75
2022/12/11 04:38:47;;;;;;;32.10;12.82;;;;;;;-0.10;100.00;100993.00;5065909;28;20396;-75
2022/12/11 04:41:14;;;;;;;31.52;11.77;;;;;;;-0.09;100.00;100992.09;5050992;28;20039;-75
2022/12/11 04:43:44;;;;;;;29.67;12.63;;;;;;;-0.09;100.00;100992.09;5047967;28;20021;-75
2022/12/11 04:46:12;;;;;;;29.65;13.45;;;;;;;-0.09;100.00;100988.56;5038038;28;20037;-75
2022/12/11 04:48:38;;;;;;;28.23;11.30;;;;;;;-0.10;100.00;100989.44;5027922;28;20515;-75
2022/12/11 04:51:04;;;;;;;26.33;12.07;;;;;;;-0.12;100.00;100980.59;5028520;28;20142;-75
2022/12/11 04:53:29;;;;;;;31.98;11.75;;;;;;;-0.09;100.00;100996.56;5027300;28;20632;-75
2022/12/11 04:55:55;;;;;;;27.65;13.10;;;;;;;-0.11;100.00;100988.56;5028818;28;20048;-75
2022/12/11 04:58:21;;;;;;;28.63;11.55;;;;;;;-0.11;100.00;100998.41;5031331;28;20042;-75
2022/12/11 05:00:47;;;;;;;30.88;12.30;;;;;;;-0.13;100.00;100993.09;5038994;28;20036;-75
2022/12/11 05:03:12;;;;;;;30.85;12.55;;;;;;;-0.14;100.00;100977.97;5046685;28;20086;-75
2022/12/11 05:05:38;;;;;;;36.47;12.55;;;;;;;-0.12;100.00;100989.50;5048217;28;20041;-75
2022/12/11 05:08:04;;;;;;;29.52;11.98;;;;;;;-0.12;100.00;100977.94;5047855;28;20557;-76
2022/12/11 05:10:29;;;;;;;33.88;12.82;;;;;;;-0.13;100.00;100986.88;5027946;28;20425;-75
2022/12/11 05:12:55;;;;;;;36.55;13.07;;;;;;;-0.12;100.00;100980.59;5044164;28;20098;-75
2022/12/11 05:15:20;;;;;;;29.48;11.60;;;;;;;-0.12;100.00;100983.28;5035950;28;20029;-75
2022/12/11 05:17:45;;;;;;;28.42;12.40;;;;;;;-0.13;100.00;100978.84;5046066;28;20029;-75
2022/12/11 05:20:11;;;;;;;29.08;12.32;;;;;;;-0.14;100.00;100983.34;5047822;28;20028;-75
2022/12/11 05:22:37;;;;;;;30.67;12.55;;;;;;;-0.12;100.00;100991.28;5047699;28;20029;-75
2022/12/11 05:25:04;;;;;;;27.45;11.52;;;;;;;-0.13;100.00;100984.19;5042081;28;20120;-75
2022/12/11 05:27:29;;;;;;;25.15;12.05;;;;;;;-0.14;100.00;100983.34;5026768;28;20033;-75
2022/12/11 05:29:54;;;;;;;24.40;11.50;;;;;;;-0.14;100.00;100974.41;5034325;28;20174;-75
2022/12/11 05:32:20;;;;;;;29.77;13.13;;;;;;;-0.13;100.00;100978.84;5026606;28;20052;-75
2022/12/11 05:34:45;;;;;;;24.30;11.20;;;;;;;-0.13;100.00;100977.06;5027273;28;20021;-75
2022/12/11 05:37:10;;;;;;;26.70;10.55;;;;;;;-0.14;100.00;100969.97;5026695;28;20434;-75
2022/12/11 05:39:36;;;;;;;28.95;12.00;;;;;;;-0.14;100.00;100974.41;5027827;28;20116;-75
2022/12/11 05:42:02;;;;;;;24.35;11.32;;;;;;;-0.16;100.00;100969.09;5046293;28;20443;-75
2022/12/11 05:44:28;;;;;;;28.23;11.57;;;;;;;-0.14;100.00;100972.63;5038846;28;20141;-75
2022/12/11 05:46:53;;;;;;;30.75;12.07;;;;;;;-0.14;100.00;100971.72;5025745;28;20045;-76
2022/12/11 05:49:18;;;;;;;25.83;11.38;;;;;;;-0.13;100.00;100970.84;5032549;28;20045;-76
2022/12/11 05:51:44;;;;;;;28.27;11.60;;;;;;;-0.14;100.00;100966.38;5027222;28;20111;-75
2022/12/11 05:54:09;;;;;;;28.02;12.15;;;;;;;-0.12;100.00;100972.59;5043387;28;20044;-78
2022/12/11 05:56:35;;;;;;;26.98;11.13;;;;;;;-0.11;100.00;100985.03;5026959;28;20041;-75
2022/12/11 05:59:03;;;;;;;28.35;11.45;;;;;;;-0.12;100.00;100984.16;5026991;28;20033;-75
2022/12/11 06:01:40;;;;;;;30.58;13.32;;;;;;;-0.12;100.00;100977.94;5028450;28;20082;-76
2022/12/11 06:04:07;;;;;;;26.48;11.15;;;;;;;-0.12;100.00;100984.16;5045814;28;20068;-75
2022/12/11 06:06:35;;;;;;;30.45;11.18;;;;;;;-0.10;100.00;100984.97;5026743;28;20072;-75
2022/12/11 06:09:02;;;;;;;25.70;12.95;;;;;;;-0.10;100.00;100989.44;5042034;28;20045;-75
2022/12/11 06:11:30;;;;;;;29.40;11.32;;;;;;;-0.10;100.00;100984.97;5024272;28;20025;-75
2022/12/11 06:13:55;;;;;;;26.25;10.43;;;;;;;-0.09;100.00;100985.88;5027009;28;20037;-75
2022/12/11 06:16:22;;;;;;;28.35;11.43;;;;;;;-0.09;100.00;100983.22;5027062;28;20528;-75
2022/12/11 06:18:47;;;;;;;31.15;11.68;;;;;;;-0.07;100.00;100984.03;5026434;28;20029;-75
2022/12/11 06:21:39;;;;;;;27.70;10.70;;;;;;;-0.05;100.00;100980.41;5027616;28;20503;-76
2022/12/11 06:24:05;;;;;;;31.55;12.05;;;;;;;-0.07;100.00;100976.00;5024429;28;20132;-76
2022/12/11 06:26:30;;;;;;;28.65;11.43;;;;;;;-0.08;100.00;100983.16;5025337;28;20129;-76
2022/12/11 06:28:56;;;;;;;25.58;11.07;;;;;;;-0.06;100.00;100975.09;5026357;28;20440;-75
2022/12/11 06:31:21;;;;;;;28.45;11.38;;;;;;;-0.06;100.00;100983.09;5041673;28;20032;-75
2022/12/11 06:33:47;;;;;;;23.65;10.70;;;;;;;-0.09;100.00;100973.38;5025795;28;20052;-75
2022/12/11 06:36:16;;;;;;;27.52;11.27;;;;;;;-0.08;100.00;100975.13;5045362;28;20840;-75
2022/12/11 06:38:41;;;;;;;33.97;12.40;;;;;;;-0.09;100.00;100973.38;5046912;28;20037;-75
2022/12/11 06:41:07;;;;;;;25.58;11.52;;;;;;;-0.07;100.00;100981.34;5047000;28;20039;-75
2022/12/11 06:43:35;;;;;;;28.98;10.75;;;;;;;-0.07;100.00;100976.88;5039253;28;20033;-75
2022/12/11 06:46:05;;;;;;;27.70;12.88;;;;;;;-0.05;100.00;100971.47;5030155;28;20082;-75
2022/12/11 06:48:31;;;;;;;27.80;11.90;;;;;;;-0.03;100.00;100972.34;5035219;28;20323;-75
2022/12/11 06:50:56;;;;;;;22.77;11.15;;;;;;;-0.06;100.00;100967.94;5028615;28;20026;-76
2022/12/11 06:53:22;;;;;;;27.58;10.70;;;;;;;-0.04;100.00;100979.50;5027372;28;20163;-75
2022/12/11 06:55:47;;;;;;;27.88;12.80;;;;;;;-0.04;100.00;100973.25;5040354;28;20040;-75
2022/12/11 06:58:13;;;;;;;26.58;11.75;;;;;;;-0.04;100.00;100965.25;5029246;28;20070;-75
2022/12/11 07:00:38;;;;;;;27.55;11.75;;;;;;;-0.06;100.00;100961.72;5039687;28;20087;-75
2022/12/11 07:03:04;;;;;;;27.83;11.52;;;;;;;-0.03;100.00;100969.66;5025646;28;20041;-75
2022/12/11 07:05:30;;;;;;;22.70;10.98;;;;;;;-0.05;100.00;100972.38;5024957;28;20041;-75
2022/12/11 07:07:55;;;;;;;28.75;11.65;;;;;;;-0.04;100.00;100973.25;5026151;28;20497;-75
2022/12/11 07:10:22;;;;;;;28.45;12.38;;;;;;;-0.04;100.00;100974.13;5034305;28;20255;-75
2022/12/11 07:12:47;;;;;;;27.88;11.60;;;;;;;-0.07;100.00;100974.22;5030984;28;20064;-75
2022/12/11 07:15:13;;;;;;;34.20;13.25;;;;;;;-0.02;100.00;100980.31;5056505;28;20473;-75
2022/12/11 07:17:38;;;;;;;28.58;11.45;;;;;;;-0.01;100.00;100978.50;5027329;28;20461;-75
2022/12/11 07:20:04;;;;;;;30.83;12.98;;;;;;;0.00;100.00;100991.00;5027512;28;20469;-75
2022/12/11 07:22:30;;;;;;;25.02;11.18;;;;;;;-0.01;100.00;100995.44;5047916;28;20091;-75
2022/12/11 07:24:55;;;;;;;26.58;11.60;;;;;;;-0.01;100.00;100994.56;5030194;28;20112;-75
2022/12/11 07:27:21;;;;;;;27.83;11.38;;;;;;;0.00;100.00;100996.34;5037592;28;20577;-75
2022/12/11 07:29:46;;;;;;;29.50;11.80;;;;;;;0.01;100.00;100992.75;5042709;28;20097;-75
2022/12/11 07:32:11;;;;;;;30.17;11.73;;;;;;;-0.01;100.00;101002.56;5048414;28;20417;-75
2022/12/11 07:34:37;;;;;;;30.88;12.32;;;;;;;0.00;100.00;100991.00;5045486;28;20393;-75
2022/12/11 07:37:03;;;;;;;29.30;12.30;;;;;;;0.01;100.00;101003.44;5045949;28;20041;-75
2022/12/11 07:39:28;;;;;;;31.08;12.23;;;;;;;0.02;100.00;101002.50;5048130;28;20033;-76
2022/12/11 07:41:54;;;;;;;29.48;12.05;;;;;;;0.02;100.00;100999.84;5032967;28;20042;-75
2022/12/11 07:44:19;;;;;;;26.70;11.98;;;;;;;0.02;100.00;100999.84;5039760;28;20473;-76
2022/12/11 07:46:45;;;;;;;28.20;11.73;;;;;;;0.01;100.00;100995.41;5043077;28;20108;-74
2022/12/11 07:49:10;;;;;;;30.25;11.70;;;;;;;0.02;100.00;100993.63;5039244;28;20067;-75
2022/12/11 07:51:37;;;;;;;29.92;12.55;;;;;;;0.02;100.00;100993.63;5049325;28;20036;-74
2022/12/11 07:54:15;;;;;;;29.92;12.05;;;;;;;0.02;100.00;100990.94;5048282;28;20529;-75
2022/12/11 07:56:42;;;;;;;30.48;12.75;;;;;;;-0.01;100.00;100990.09;5047517;28;20110;-76
2022/12/11 07:59:07;;;;;;;29.33;12.10;;;;;;;0.01;100.00;100994.53;5026812;28;20017;-76
2022/12/11 08:01:35;;;;;;;34.13;12.02;;;;;;;0.01;100.00;100991.88;5043136;28;20056;-75
2022/12/11 08:04:02;;;;;;;28.58;12.48;;;;;;;0.02;100.00;100994.47;5044034;28;20038;-75
2022/12/11 08:06:30;;;;;;;29.38;11.43;;;;;;;0.02;100.00;100993.63;5029098;28;20025;-75
2022/12/11 08:08:57;;;;;;;27.92;12.93;;;;;;;0.04;100.00;100992.63;5011621;28;20041;-75
2022/12/11 08:11:23;;;;;;;28.10;11.68;;;;;;;0.04;100.00;100992.63;5040090;28;20388;-75
2022/12/11 08:13:48;;;;;;;30.27;12.90;;;;;;;0.06;100.00;101004.19;5040105;28;20052;-75
2022/12/11 08:16:15;;;;;;;35.58;13.30;;;;;;;0.04;100.00;100986.41;5042014;28;20052;-75
2022/12/11 08:18:42;;;;;;;32.53;12.63;;;;;;;0.08;100.00;101001.47;5034333;28;20095;-75
2022/12/11 08:21:11;;;;;;;31.98;13.75;;;;;;;0.08;100.00;100996.97;5028942;28;20095;-75
2022/12/11 08:23:36;;;;;;;29.67;12.95;;;;;;;0.10;100.00;100991.63;5033116;28;20095;-75
2022/12/11 08:26:04;;;;;;;28.63;12.60;;;;;;;0.11;100.00;100994.25;5044823;28;20059;-75
2022/12/11 08:28:30;;;;;;;28.67;12.30;;;;;;;0.13;100.00;100991.50;5034375;28;20496;-75
2022/12/11 08:30:56;;;;;;;33.95;13.52;;;;;;;0.13;100.00;100991.50;5039819;28;20032;-75
2022/12/11 08:33:21;;;;;;;31.40;13.15;;;;;;;0.13;100.00;100994.19;5048498;28;20427;-75
2022/12/11 08:35:46;;;;;;;30.92;12.15;;;;;;;0.14;100.00;100998.59;5035988;28;20037;-75
2022/12/11 08:38:12;;;;;;;27.63;12.18;;;;;;;0.14;100.00;100999.53;5028234;28;20064;-75
2022/12/11 08:40:37;;;;;;;35.30;14.13;;;;;;;0.16;100.00;101005.69;5042540;28;20055;-74
2022/12/11 08:43:03;;;;;;;31.15;12.93;;;;;;;0.15;100.00;100998.59;5044632;28;20463;-75
2022/12/11 08:45:28;;;;;;;26.85;11.88;;;;;;;0.17;100.00;100996.75;5028324;28;20108;-74
2022/12/11 08:47:53;;;;;;;26.33;11.68;;;;;;;0.19;100.00;100997.59;5026410;28;20041;-75
2022/12/11 08:50:19;;;;;;;31.88;13.63;;;;;;;0.20;100.00;101001.13;5028266;28;20108;-75
2022/12/11 08:52:45;;;;;;;33.97;12.32;;;;;;;0.22;100.00;101000.16;5026726;28;20033;-74
2022/12/11 08:55:10;;;;;;;30.70;11.93;;;;;;;0.22;100.00;100993.94;5029112;28;20484;-75
2022/12/11 08:57:38;;;;;;;32.78;13.07;;;;;;;0.24;100.00;100986.75;5037729;28;20060;-75
2022/12/11 09:00:05;;;;;;;33.90;14.07;;;;;;;0.25;100.00;100983.16;5028822;28;20036;-75
2022/12/11 09:02:30;;;;;;;37.15;13.38;;;;;;;0.24;100.00;100978.75;5026795;28;20429;-75
2022/12/11 09:04:56;;;;;;;33.15;14.07;;;;;;;0.24;100.00;100984.09;5026180;28;20044;-75
2022/12/11 09:07:21;;;;;;;30.17;13.60;;;;;;;0.25;100.00;100976.00;5027807;28;20025;-75
2022/12/11 09:09:46;;;;;;;32.38;12.15;;;;;;;0.28;100.00;100982.19;5028440;28;20042;-75
2022/12/11 09:12:12;;;;;;;38.53;14.20;;;;;;;0.28;100.00;100976.81;5042770;28;20045;-75
2022/12/11 09:14:38;;;;;;;34.40;13.68;;;;;;;0.32;100.00;100978.50;5041792;28;20051;-76
2022/12/11 09:17:04;;;;;;;33.08;14.95;;;;;;;0.32;100.00;100981.19;5028129;28;20608;-75
2022/12/11 09:19:29;;;;;;;34.65;13.55;;;;;;;0.35;100.00;100979.31;5027713;28;20483;-75
2022/12/11 09:21:55;;;;;;;33.10;13.32;;;;;;;0.35;100.00;100981.09;5028258;28;20037;-75
2022/12/11 09:24:20;;;;;;;33.03;13.13;;;;;;;0.36;100.00;100981.06;5027114;28;20076;-75
2022/12/11 09:26:46;;;;;;;33.65;13.60;;;;;;;0.37;100.00;100981.94;5027771;28;20037;-74
2022/12/11 09:29:11;;;;;;;28.17;11.85;;;;;;;0.36;100.00;100980.19;5034155;28;20087;-75
2022/12/11 09:31:37;;;;;;;32.85;13.60;;;;;;;0.40;100.00;100993.44;5026752;28;20120;-75
2022/12/11 09:34:06;;;;;;;32.97;14.35;;;;;;;0.42;100.00;100983.56;5026942;28;20042;-75
2022/12/11 09:36:31;;;;;;;34.45;14.57;;;;;;;0.42;100.00;100980.91;5026929;28;20136;-75
2022/12/11 09:39:03;;;;;;;29.35;13.50;;;;;;;0.44;100.00;100988.88;5037536;28;20576;-75
2022/12/11 09:41:45;;;;;;;36.50;14.73;;;;;;;0.41;100.00;100975.56;5035548;28;20036;-75
2022/12/11 09:44:40;;;;;;;39.22;14.77;;;;;;;0.42;100.00;100977.31;5041841;28;20060;-75
2022/12/11 09:47:24;;;;;;;31.15;12.45;;;;;;;0.41;100.00;100976.44;5025848;28;20038;-75
2022/12/11 09:50:04;;;;;;;35.00;13.65;;;;;;;0.40;100.00;100977.38;5026701;28;20033;-75
2022/12/11 09:52:38;;;;;;;35.65;15.13;;;;;;;0.40;100.00;100981.84;5026886;28;20041;-74
2022/12/11 09:55:56;;;;;;;27.70;11.88;;;;;;;0.42;100.00;100980.00;5027485;28;20049;-74
2022/12/11 09:58:35;;;;;;;29.35;12.85;;;;;;;0.43;100.00;100981.78;5037552;28;20048;-74
2022/12/11 10:01:20;;;;;;;31.33;14.35;;;;;;;0.45;100.00;100982.59;5028770;28;20051;-75
2022/12/11 10:03:52;;;;;;;32.80;13.35;;;;;;;0.44;100.00;100971.00;5026751;28;20041;-74
2022/12/11 10:06:59;;;;;;;36.25;15.02;;;;;;;0.45;100.00;100964.72;5025210;28;20068;-74
2022/12/11 10:09:37;;;;;;;41.30;14.68;;;;;;;0.47;100.00;100964.72;5027659;28;20089;-74
2022/12/11 10:12:39;;;;;;;33.85;12.90;;;;;;;0.52;100.00;100969.94;5045546;28;20036;-74
2022/12/11 10:15:23;;;;;;;41.28;13.88;;;;;;;0.56;100.00;100972.47;5026160;28;20053;-74
2022/12/11 10:17:52;;;;;;;34.00;13.23;;;;;;;0.58;100.00;100972.41;5042034;28;20045;-74
2022/12/11 10:20:33;;;;;;;31.90;13.05;;;;;;;0.61;100.00;100975.00;5026569;28;20037;-74
2022/12/11 10:23:00;;;;;;;32.30;13.63;;;;;;;0.64;100.00;100974.91;5026430;28;20079;-74
2022/12/11 10:25:36;;;;;;;32.75;12.35;;;;;;;0.65;100.00;100971.28;5042633;28;20043;-74
2022/12/11 10:28:13;;;;;;;33.78;13.65;;;;;;;0.63;100.00;100971.34;5026393;28;20033;-74
2022/12/11 10:30:46;;;;;;;33.08;13.43;;;;;;;0.65;100.00;100968.63;5026602;28;20123;-74
2022/12/11 10:33:20;;;;;;;31.67;12.40;;;;;;;0.68;100.00;100968.53;5026817;28;20438;-74
2022/12/11 10:35:45;;;;;;;31.77;12.98;;;;;;;0.69;100.00;100959.56;5027068;28;20041;-73
2022/12/11 10:38:19;;;;;;;27.95;12.13;;;;;;;0.69;100.00;100962.25;5027284;28;20103;-74
2022/12/11 10:40:49;;;;;;;29.50;12.70;;;;;;;0.71;100.00;100961.31;5027814;28;20037;-74
2022/12/11 10:43:14;;;;;;;29.50;12.80;;;;;;;0.72;100.00;100965.72;5041406;28;20037;-74
2022/12/11 10:45:54;;;;;;;35.10;13.23;;;;;;;0.71;100.00;100963.09;5039384;28;20125;-74
2022/12/11 10:48:21;;;;;;;31.13;12.40;;;;;;;0.67;99.67;100958.75;5046006;28;20446;-74
2022/12/11 10:50:56;;;;;;;35.28;14.02;;;;;;;0.68;100.00;100955.16;5040777;28;20373;-74
2022/12/11 10:53:23;;;;;;;32.75;14.45;;;;;;;0.68;99.62;100957.81;5025124;28;20044;-74
2022/12/11 10:55:49;;;;;;;33.30;13.85;;;;;;;0.69;99.96;100955.09;5042339;28;20072;-74
2022/12/11 10:58:20;;;;;;;30.55;13.15;;;;;;;0.71;99.80;100953.28;5026623;28;20041;-73
2022/12/11 11:01:01;;;;;;;33.75;13.65;;;;;;;0.69;99.61;100946.19;5026047;28;20084;-73
2022/12/11 11:03:28;;;;;;;38.25;15.13;;;;;;;0.72;100.00;100946.97;5025648;28;20045;-74
2022/12/11 11:06:17;;;;;;;32.80;14.43;;;;;;;0.75;99.97;100952.25;5041446;28;20079;-73
2022/12/11 11:08:51;;;;;;;31.25;13.52;;;;;;;0.76;100.00;100939.75;5029376;28;20413;-74
2022/12/11 11:11:32;;;;;;;34.28;12.00;;;;;;;0.78;100.00;100940.56;5060202;28;20094;-73
2022/12/11 11:14:14;;;;;;;27.23;12.55;;;;;;;0.81;100.00;100934.25;5047851;28;20038;-74
2022/12/11 11:16:42;;;;;;;29.90;12.80;;;;;;;0.80;99.49;100933.38;5026703;28;20489;-73
2022/12/11 11:19:17;;;;;;;30.08;12.70;;;;;;;0.81;99.72;100934.25;5025923;28;20127;-74
2022/12/11 11:21:49;;;;;;;35.13;13.00;;;;;;;0.86;99.26;100940.34;5026579;28;20530;-74